^^
Grace C. Lehan Memorial Weather Station Historical Data
Daily Summary for December 31, 2021 Units:  English    Metric   Both
Daily Weekly Monthly Yearly
  High: Low: Average:
Temperature: 47.7 °F 43.6 °F 45 °F
Dew Point: 46.9 °F 42.3 °F 44 °F
Humidity: 97% 95.2% 96%
Wind Speed: 0.4mph 0mph 0mph
Wind Gust: 3mph - -
Wind- - NE
Pressure: 29.95 in 29.89 in -
Precipitation: 0.01 in    
 
 
Tabular Data for December 31, 2021
Time Temperature Dew Point Pressure Wind Wind Speed Wind Gust Humidity Rainfall Rate (Hourly) solar
00:04 43.6 °F 42.3 °F 29.89 in Calm     95.2% 0.01 in 0 W/m2
00:09 43.6 °F 42.5 °F 29.89 in Calm     96% 0.00 in 0 W/m2
00:14 43.7 °F 42.6 °F 29.89 in Calm     96% 0.00 in 0 W/m2
00:19 43.7 °F 42.7 °F 29.90 in Calm     96% 0.00 in 0 W/m2
00:24 43.8 °F 42.7 °F 29.90 in Calm     96% 0.00 in 0 W/m2
00:29 43.8 °F 42.7 °F 29.90 in Calm     96% 0.00 in 0 W/m2
00:34 43.8 °F 42.7 °F 29.90 in Calm     96% 0.00 in 0 W/m2
00:39 43.8 °F 42.8 °F 29.90 in Calm     96% 0.00 in 0 W/m2
00:44 43.9 °F 42.8 °F 29.89 in Calm     96% 0.00 in 0 W/m2
00:49 43.9 °F 42.8 °F 29.89 in Calm     96% 0.00 in 0 W/m2
00:54 43.9 °F 42.8 °F 29.89 in Calm     96% 0.00 in 0 W/m2
00:59 43.8 °F 42.8 °F 29.89 in Calm     96% 0.00 in 0 W/m2
01:04 43.8 °F 42.8 °F 29.89 in Calm     96% 0.00 in 0 W/m2
01:09 43.8 °F 42.8 °F 29.89 in Calm     96% 0.00 in 0 W/m2
01:14 43.9 °F 42.8 °F 29.89 in Calm     96% 0.00 in 0 W/m2
01:19 43.9 °F 42.8 °F 29.89 in Calm     96% 0.00 in 0 W/m2
01:24 43.9 °F 42.8 °F 29.89 in Calm     96% 0.00 in 0 W/m2
01:29 44 °F 42.9 °F 29.89 in Calm     96% 0.00 in 0 W/m2
01:34 44 °F 42.9 °F 29.90 in Calm     96% 0.00 in 0 W/m2
01:39 44 °F 42.9 °F 29.90 in Calm     96% 0.00 in 0 W/m2
01:44 44 °F 42.9 °F 29.90 in Calm     96% 0.00 in 0 W/m2
01:49 44.1 °F 43 °F 29.90 in Calm     96% 0.00 in 0 W/m2
01:54 44.1 °F 43.1 °F 29.90 in Calm     96% 0.00 in 0 W/m2
01:59 44.2 °F 43.1 °F 29.90 in Calm   1 mph 96% 0.00 in 0 W/m2
02:04 44.2 °F 43.1 °F 29.90 in Calm   1 mph 96% 0.00 in 0 W/m2
02:09 44.2 °F 43.2 °F 29.91 in Calm     96% 0.00 in 0 W/m2
02:14 44.2 °F 43.2 °F 29.91 in Calm     96% 0.00 in 0 W/m2
02:19 44.3 °F 43.2 °F 29.91 in Calm     96% 0.00 in 0 W/m2
02:24 44.2 °F 43.2 °F 29.91 in Calm     96% 0.00 in 0 W/m2
02:29 44.2 °F 43.2 °F 29.90 in Calm     96% 0.01 in 0 W/m2
02:34 44.2 °F 43.2 °F 29.90 in Calm     96% 0.01 in 0 W/m2
02:39 44.3 °F 43.2 °F 29.90 in Calm     96% 0.01 in 0 W/m2
02:44 44.3 °F 43.2 °F 29.90 in Calm     96% 0.01 in 0 W/m2
02:49 44.3 °F 43.2 °F 29.90 in Calm     96% 0.01 in 0 W/m2
02:54 44.3 °F 43.2 °F 29.90 in Calm     96% 0.01 in 0 W/m2
02:59 44.3 °F 43.2 °F 29.90 in Calm     96% 0.01 in 0 W/m2
03:04 44.3 °F 43.2 °F 29.90 in Calm     96% 0.01 in 0 W/m2
03:09 44.3 °F 43.2 °F 29.90 in Calm     96% 0.01 in 0 W/m2
03:14 44.3 °F 43.2 °F 29.90 in Calm     96% 0.01 in 0 W/m2
03:19 44.3 °F 43.3 °F 29.90 in Calm     96% 0.01 in 0 W/m2
03:24 44.4 °F 43.3 °F 29.90 in Calm     96% 0.01 in 0 W/m2
03:29 44.4 °F 43.3 °F 29.90 in Calm     96% 0.01 in 0 W/m2
03:34 44.4 °F 43.3 °F 29.90 in Calm     96% 0.01 in 0 W/m2
03:39 44.4 °F 43.3 °F 29.89 in Calm     96% 0.00 in 0 W/m2
03:44 44.4 °F 43.3 °F 29.89 in Calm     96% 0.00 in 0 W/m2
03:49 44.4 °F 43.3 °F 29.89 in Calm     96% 0.00 in 0 W/m2
03:54 44.4 °F 43.3 °F 29.89 in Calm     96% 0.00 in 0 W/m2
03:59 44.4 °F 43.3 °F 29.89 in Calm     96% 0.00 in 0 W/m2
04:00 44.4 °F 43.3 °F 29.89 in Calm     96% 0.00 in 0 W/m2
04:09 44.4 °F 43.3 °F 29.89 in Calm     96% 0.00 in 0 W/m2
04:14 44.4 °F 43.3 °F 29.89 in Calm     96% 0.00 in 0 W/m2
04:19 44.4 °F 43.3 °F 29.89 in Calm     96% 0.00 in 0 W/m2
04:24 44.4 °F 43.3 °F 29.89 in Calm     96% 0.00 in 0 W/m2
04:29 44.4 °F 43.3 °F 29.89 in Calm     96% 0.00 in 0 W/m2
04:34 44.4 °F 43.3 °F 29.89 in Calm     96% 0.00 in 0 W/m2
04:39 44.4 °F 43.3 °F 29.89 in Calm     96% 0.00 in 0 W/m2
04:44 44.4 °F 43.3 °F 29.89 in Calm     96% 0.00 in 0 W/m2
04:49 44.3 °F 43.3 °F 29.89 in Calm     96% 0.00 in 0 W/m2
04:54 44.3 °F 43.2 °F 29.89 in Calm     96% 0.00 in 0 W/m2
04:59 44.3 °F 43.2 °F 29.89 in Calm     96% 0.00 in 0 W/m2
05:04 44.2 °F 43.1 °F 29.89 in Calm     96% 0.00 in 0 W/m2
05:09 44.1 °F 43.1 °F 29.89 in Calm     96% 0.00 in 0 W/m2
05:14 44 °F 42.9 °F 29.90 in Calm     96% 0.00 in 0 W/m2
05:19 43.8 °F 42.8 °F 29.90 in Calm     96% 0.00 in 0 W/m2
05:24 43.7 °F 42.7 °F 29.90 in Calm     96% 0.00 in 0 W/m2
05:29 43.6 °F 42.6 °F 29.90 in Calm     96% 0.00 in 0 W/m2
05:34 43.6 °F 42.5 °F 29.90 in Calm     96% 0.00 in 0 W/m2
05:39 43.6 °F 42.6 °F 29.90 in Calm     96% 0.00 in 0 W/m2
05:44 43.9 °F 42.9 °F 29.90 in Calm     96.3% 0.00 in 0 W/m2
05:49 44.1 °F 43.3 °F 29.90 in Calm     97% 0.00 in 0 W/m2
05:54 44.2 °F 43.4 °F 29.90 in Calm     97% 0.00 in 0 W/m2
05:59 44.1 °F 43.3 °F 29.90 in Calm     97% 0.00 in 0 W/m2
06:04 44 °F 43.2 °F 29.90 in Calm     97% 0.00 in 0 W/m2
06:09 44 °F 43 °F 29.90 in Calm     96.3% 0.00 in 0 W/m2
06:14 43.9 °F 42.8 °F 29.90 in Calm     96% 0.00 in 0 W/m2
06:19 43.8 °F 42.8 °F 29.90 in Calm     96% 0.00 in 0 W/m2
06:24 43.8 °F 42.7 °F 29.90 in Calm     96% 0.00 in 0 W/m2
06:29 43.8 °F 42.7 °F 29.91 in Calm     96% 0.00 in 0 W/m2
06:34 43.8 °F 42.7 °F 29.91 in Calm     96% 0.00 in 0 W/m2
06:39 43.9 °F 42.9 °F 29.91 in Calm     96.4% 0.00 in 0 W/m2
06:44 43.9 °F 43.1 °F 29.90 in Calm     97% 0.00 in 0 W/m2
06:49 44 °F 43.2 °F 29.90 in Calm     96.8% 0.00 in 0 W/m2
06:54 44 °F 43.2 °F 29.91 in Calm     96.8% 0.00 in 0 W/m2
06:59 44.1 °F 43.3 °F 29.91 in Calm     97% 0.00 in 0 W/m2
07:04 44.2 °F 43.4 °F 29.91 in Calm     97% 0.00 in 0 W/m2
07:09 44.3 °F 43.5 °F 29.92 in Calm     97% 0.00 in 0 W/m2
07:14 44.4 °F 43.6 °F 29.92 in Calm     97% 0.00 in 0 W/m2
07:19 44.5 °F 43.7 °F 29.92 in Calm     97% 0.00 in 0 W/m2
07:24 44.6 °F 43.8 °F 29.92 in Calm     97% 0.00 in 0 W/m2
07:29 44.7 °F 43.9 °F 29.92 in NE 0.2 mph 3 mph 97% 0.00 in 7 W/m2
07:34 44.7 °F 43.9 °F 29.92 in Calm   3 mph 97% 0.00 in 9 W/m2
07:39 44.8 °F 44 °F 29.92 in Calm     97% 0.00 in 16 W/m2
07:44 44.9 °F 44.1 °F 29.92 in Calm     97% 0.00 in 23 W/m2
07:49 45.1 °F 44.3 °F 29.92 in Calm     97% 0.00 in 26 W/m2
07:54 45.2 °F 44.4 °F 29.92 in Calm     97% 0.00 in 30 W/m2
07:59 45.3 °F 44.5 °F 29.92 in Calm     97% 0.00 in 28 W/m2
08:00 45.3 °F 44.5 °F 29.92 in Calm     97% 0.00 in 26 W/m2
08:09 45.3 °F 44.5 °F 29.92 in Calm     97% 0.00 in 33 W/m2
08:14 45.3 °F 44.5 °F 29.92 in Calm     97% 0.00 in 37 W/m2
08:19 45.4 °F 44.6 °F 29.93 in Calm     97% 0.00 in 30 W/m2
08:24 45.5 °F 44.7 °F 29.93 in Calm     97% 0.00 in 28 W/m2
08:29 45.5 °F 44.7 °F 29.93 in Calm     97% 0.00 in 33 W/m2
08:34 45.6 °F 44.8 °F 29.93 in Calm     97% 0.00 in 33 W/m2
08:39 45.8 °F 45 °F 29.93 in Calm     97% 0.00 in 42 W/m2
08:44 45.9 °F 45.1 °F 29.93 in Calm     97% 0.00 in 42 W/m2
08:49 46 °F 45.2 °F 29.93 in Calm     97% 0.00 in 37 W/m2
08:54 46.1 °F 45.3 °F 29.93 in Calm     97% 0.00 in 42 W/m2
08:59 46.3 °F 45.5 °F 29.93 in Calm     97% 0.00 in 46 W/m2
09:04 46.4 °F 45.6 °F 29.94 in Calm     97% 0.00 in 46 W/m2
09:09 46.5 °F 45.7 °F 29.94 in Calm     97% 0.00 in 56 W/m2
09:14 46.5 °F 45.7 °F 29.94 in Calm     97% 0.00 in 60 W/m2
09:19 46.7 °F 45.9 °F 29.94 in Calm     97% 0.00 in 47 W/m2
09:24 46.7 °F 45.9 °F 29.94 in Calm     97% 0.00 in 51 W/m2
09:29 46.8 °F 46 °F 29.94 in Calm     97% 0.00 in 53 W/m2
09:34 46.9 °F 46.1 °F 29.94 in Calm     97% 0.00 in 44 W/m2
09:39 46.9 °F 46.1 °F 29.94 in Calm     97% 0.00 in 53 W/m2
09:44 47 °F 46.2 °F 29.94 in Calm     97% 0.00 in 56 W/m2
09:49 47.1 °F 46.3 °F 29.95 in Calm     97% 0.00 in 63 W/m2
09:54 47.2 °F 46.4 °F 29.95 in Calm     97% 0.00 in 62 W/m2
09:59 47.3 °F 46.5 °F 29.95 in Calm     97% 0.00 in 62 W/m2
10:04 47.4 °F 46.6 °F 29.95 in Calm     97% 0.00 in 69 W/m2
10:09 47.5 °F 46.7 °F 29.95 in Calm     97% 0.00 in 67 W/m2
10:14 47.6 °F 46.8 °F 29.95 in Calm     97% 0.00 in 72 W/m2
10:19 47.6 °F 46.8 °F 29.95 in Calm     97% 0.00 in 86 W/m2
10:24 47.6 °F 46.8 °F 29.95 in Calm     97% 0.00 in 86 W/m2
10:29 47.7 °F 46.9 °F 29.95 in Calm     97% 0.00 in 95 W/m2
10:34 47.5 °F 46.7 °F 29.94 in Calm     97% 0.00 in 98 W/m2
10:39 47.4 °F 46.6 °F 29.94 in Calm     97% 0.00 in 95 W/m2
10:44 47.4 °F 46.5 °F 29.94 in Calm     97% 0.00 in 104 W/m2
10:49 47.3 °F 46.5 °F 29.93 in Calm     97% 0.00 in 104 W/m2
10:54 47.3 °F 46.5 °F 29.93 in Calm     97% 0.00 in 91 W/m2
10:59 47.2 °F 46.4 °F 29.93 in Calm     97% 0.00 in 81 W/m2
11:04 47.2 °F 46.4 °F 29.93 in Calm     97% 0.00 in 83 W/m2
11:09 47.2 °F 46.4 °F 29.92 in Calm     97% 0.00 in 95 W/m2
11:14 47.2 °F 46.4 °F 29.92 in Calm     97% 0.00 in 97 W/m2
11:19 47.2 °F 46.4 °F 29.92 in NE 0.4 mph 3 mph 97% 0.00 in 104 W/m2
11:24 47.2 °F 46.4 °F 29.91 in Calm   3 mph 97% 0.00 in 104 W/m2
11:29 47.4 °F 46.3 °F 29.91 in Calm   3 mph 96% 0.00 in 98 W/m2
11:33 47.5 °F 46.4 °F 29.91 in Calm   3 mph 96% 0.00 in 102 W/m2
Hartford County Weather
Compliments of Weather Underground - 4 mb